sensor_id;sensor_type;location;lat;lon;timestamp;P1;durP1;ratioP1;P2;durP2;ratioP2
12308;SDS011;6217;48.150;17.142;2023-04-15T00:03:57;3.30;;;3.10;;
12308;SDS011;6217;48.150;17.142;2023-04-15T00:08:03;3.00;;;2.78;;
12308;SDS011;6217;48.150;17.142;2023-04-15T00:12:10;3.40;;;2.90;;
12308;SDS011;6217;48.150;17.142;2023-04-15T00:16:16;2.15;;;1.70;;
12308;SDS011;6217;48.150;17.142;2023-04-15T00:20:22;1.58;;;1.48;;
12308;SDS011;6217;48.150;17.142;2023-04-15T00:24:28;1.77;;;1.60;;
12308;SDS011;6217;48.150;17.142;2023-04-15T00:28:35;2.15;;;1.70;;
12308;SDS011;6217;48.150;17.142;2023-04-15T00:32:42;2.00;;;1.63;;
12308;SDS011;6217;48.150;17.142;2023-04-15T00:36:49;2.10;;;1.90;;
12308;SDS011;6217;48.150;17.142;2023-04-15T00:40:56;1.90;;;1.55;;
12308;SDS011;6217;48.150;17.142;2023-04-15T00:45:02;1.67;;;1.58;;
12308;SDS011;6217;48.150;17.142;2023-04-15T00:49:08;1.65;;;1.55;;
12308;SDS011;6217;48.150;17.142;2023-04-15T00:53:14;2.15;;;1.92;;
12308;SDS011;6217;48.150;17.142;2023-04-15T00:57:20;2.58;;;2.13;;
12308;SDS011;6217;48.150;17.142;2023-04-15T01:01:27;4.22;;;2.30;;
12308;SDS011;6217;48.150;17.142;2023-04-15T01:05:34;3.20;;;2.58;;
12308;SDS011;6217;48.150;17.142;2023-04-15T01:09:40;2.88;;;2.50;;
12308;SDS011;6217;48.150;17.142;2023-04-15T01:13:47;2.78;;;2.42;;
12308;SDS011;6217;48.150;17.142;2023-04-15T01:17:53;3.38;;;2.55;;
12308;SDS011;6217;48.150;17.142;2023-04-15T01:21:59;3.25;;;2.60;;
12308;SDS011;6217;48.150;17.142;2023-04-15T01:26:08;5.03;;;2.97;;
12308;SDS011;6217;48.150;17.142;2023-04-15T01:30:15;2.90;;;2.70;;
12308;SDS011;6217;48.150;17.142;2023-04-15T01:34:21;2.47;;;2.28;;
12308;SDS011;6217;48.150;17.142;2023-04-15T01:38:32;4.68;;;4.22;;
12308;SDS011;6217;48.150;17.142;2023-04-15T01:42:38;3.55;;;3.25;;
12308;SDS011;6217;48.150;17.142;2023-04-15T01:46:44;4.32;;;3.90;;
12308;SDS011;6217;48.150;17.142;2023-04-15T01:50:51;7.50;;;4.18;;
12308;SDS011;6217;48.150;17.142;2023-04-15T01:54:59;4.10;;;3.65;;
12308;SDS011;6217;48.150;17.142;2023-04-15T01:59:06;4.80;;;4.20;;
12308;SDS011;6217;48.150;17.142;2023-04-15T02:03:12;4.90;;;4.47;;
12308;SDS011;6217;48.150;17.142;2023-04-15T02:07:18;7.65;;;5.70;;
12308;SDS011;6217;48.150;17.142;2023-04-15T02:11:23;5.82;;;5.22;;
12308;SDS011;6217;48.150;17.142;2023-04-15T02:15:32;7.30;;;5.78;;
12308;SDS011;6217;48.150;17.142;2023-04-15T02:19:38;7.55;;;5.30;;
12308;SDS011;6217;48.150;17.142;2023-04-15T02:23:45;8.68;;;4.60;;
12308;SDS011;6217;48.150;17.142;2023-04-15T02:27:52;7.00;;;4.65;;
12308;SDS011;6217;48.150;17.142;2023-04-15T02:31:59;6.25;;;4.78;;
12308;SDS011;6217;48.150;17.142;2023-04-15T02:36:06;8.98;;;6.50;;
12308;SDS011;6217;48.150;17.142;2023-04-15T02:40:12;6.32;;;4.18;;
12308;SDS011;6217;48.150;17.142;2023-04-15T02:44:18;8.55;;;5.55;;
12308;SDS011;6217;48.150;17.142;2023-04-15T02:48:27;7.60;;;5.03;;
12308;SDS011;6217;48.150;17.142;2023-04-15T02:52:33;10.52;;;5.82;;
12308;SDS011;6217;48.150;17.142;2023-04-15T02:56:38;7.38;;;5.18;;
12308;SDS011;6217;48.150;17.142;2023-04-15T03:00:44;6.82;;;5.70;;
12308;SDS011;6217;48.150;17.142;2023-04-15T03:04:50;8.85;;;6.82;;
12308;SDS011;6217;48.150;17.142;2023-04-15T03:08:56;6.43;;;5.47;;
12308;SDS011;6217;48.150;17.142;2023-04-15T03:13:08;6.05;;;5.50;;
12308;SDS011;6217;48.150;17.142;2023-04-15T03:17:14;7.47;;;6.75;;
12308;SDS011;6217;48.150;17.142;2023-04-15T03:21:22;8.15;;;6.47;;
12308;SDS011;6217;48.150;17.142;2023-04-15T03:25:29;9.20;;;6.60;;
12308;SDS011;6217;48.150;17.142;2023-04-15T03:29:35;9.18;;;7.32;;
12308;SDS011;6217;48.150;17.142;2023-04-15T03:33:41;7.75;;;5.55;;
12308;SDS011;6217;48.150;17.142;2023-04-15T03:37:47;6.95;;;6.25;;
12308;SDS011;6217;48.150;17.142;2023-04-15T03:41:53;7.20;;;6.25;;
12308;SDS011;6217;48.150;17.142;2023-04-15T03:45:59;7.65;;;6.13;;
12308;SDS011;6217;48.150;17.142;2023-04-15T03:50:05;9.05;;;6.47;;
12308;SDS011;6217;48.150;17.142;2023-04-15T03:54:12;7.60;;;5.90;;
12308;SDS011;6217;48.150;17.142;2023-04-15T03:58:19;7.07;;;5.75;;
12308;SDS011;6217;48.150;17.142;2023-04-15T04:02:25;7.70;;;6.88;;
12308;SDS011;6217;48.150;17.142;2023-04-15T04:06:32;7.45;;;5.20;;
12308;SDS011;6217;48.150;17.142;2023-04-15T04:10:38;6.15;;;5.55;;
12308;SDS011;6217;48.150;17.142;2023-04-15T04:14:44;7.78;;;7.07;;
12308;SDS011;6217;48.150;17.142;2023-04-15T04:18:50;6.95;;;6.15;;
12308;SDS011;6217;48.150;17.142;2023-04-15T04:22:56;8.13;;;7.32;;
12308;SDS011;6217;48.150;17.142;2023-04-15T04:27:02;7.82;;;6.40;;
12308;SDS011;6217;48.150;17.142;2023-04-15T04:31:08;7.32;;;6.10;;
12308;SDS011;6217;48.150;17.142;2023-04-15T04:35:14;7.40;;;6.70;;
12308;SDS011;6217;48.150;17.142;2023-04-15T04:39:20;7.97;;;7.30;;
12308;SDS011;6217;48.150;17.142;2023-04-15T04:43:26;7.70;;;6.95;;
12308;SDS011;6217;48.150;17.142;2023-04-15T04:47:31;7.20;;;6.40;;
12308;SDS011;6217;48.150;17.142;2023-04-15T04:51:37;6.53;;;6.03;;
12308;SDS011;6217;48.150;17.142;2023-04-15T04:55:43;7.35;;;5.10;;
12308;SDS011;6217;48.150;17.142;2023-04-15T04:59:49;7.40;;;6.18;;
12308;SDS011;6217;48.150;17.142;2023-04-15T05:03:55;6.68;;;6.10;;
12308;SDS011;6217;48.150;17.142;2023-04-15T05:08:01;7.15;;;6.07;;
12308;SDS011;6217;48.150;17.142;2023-04-15T05:12:07;6.43;;;5.88;;
12308;SDS011;6217;48.150;17.142;2023-04-15T05:16:18;8.05;;;6.00;;
12308;SDS011;6217;48.150;17.142;2023-04-15T05:20:24;7.35;;;5.63;;
12308;SDS011;6217;48.150;17.142;2023-04-15T05:24:30;6.75;;;5.50;;
12308;SDS011;6217;48.150;17.142;2023-04-15T05:28:36;5.90;;;4.90;;
12308;SDS011;6217;48.150;17.142;2023-04-15T05:32:42;7.47;;;4.80;;
12308;SDS011;6217;48.150;17.142;2023-04-15T05:36:48;5.47;;;4.25;;
12308;SDS011;6217;48.150;17.142;2023-04-15T05:40:54;3.60;;;3.10;;
12308;SDS011;6217;48.150;17.142;2023-04-15T05:45:00;3.95;;;2.70;;
12308;SDS011;6217;48.150;17.142;2023-04-15T05:49:09;3.60;;;2.75;;
12308;SDS011;6217;48.150;17.142;2023-04-15T05:53:15;4.68;;;3.17;;
12308;SDS011;6217;48.150;17.142;2023-04-15T05:57:21;3.72;;;3.42;;
12308;SDS011;6217;48.150;17.142;2023-04-15T06:01:27;2.42;;;2.22;;
12308;SDS011;6217;48.150;17.142;2023-04-15T06:05:33;2.45;;;2.25;;
12308;SDS011;6217;48.150;17.142;2023-04-15T06:09:39;2.35;;;1.77;;
12308;SDS011;6217;48.150;17.142;2023-04-15T06:13:45;1.42;;;1.30;;
12308;SDS011;6217;48.150;17.142;2023-04-15T06:17:51;2.03;;;1.73;;
12308;SDS011;6217;48.150;17.142;2023-04-15T06:21:57;2.20;;;1.90;;
12308;SDS011;6217;48.150;17.142;2023-04-15T06:26:03;2.03;;;1.70;;
12308;SDS011;6217;48.150;17.142;2023-04-15T06:30:09;3.90;;;2.00;;
12308;SDS011;6217;48.150;17.142;2023-04-15T06:34:16;3.35;;;1.92;;
12308;SDS011;6217;48.150;17.142;2023-04-15T06:38:22;2.83;;;1.55;;
12308;SDS011;6217;48.150;17.142;2023-04-15T06:42:28;1.73;;;1.38;;
12308;SDS011;6217;48.150;17.142;2023-04-15T06:46:33;1.73;;;1.55;;
12308;SDS011;6217;48.150;17.142;2023-04-15T06:50:39;1.77;;;1.38;;
12308;SDS011;6217;48.150;17.142;2023-04-15T06:54:45;1.20;;;1.10;;
12308;SDS011;6217;48.150;17.142;2023-04-15T06:58:51;1.30;;;1.17;;
12308;SDS011;6217;48.150;17.142;2023-04-15T07:02:57;1.10;;;0.90;;
12308;SDS011;6217;48.150;17.142;2023-04-15T07:07:07;1.05;;;0.82;;
12308;SDS011;6217;48.150;17.142;2023-04-15T07:11:13;1.02;;;1.00;;
12308;SDS011;6217;48.150;17.142;2023-04-15T07:15:29;1.83;;;0.65;;
12308;SDS011;6217;48.150;17.142;2023-04-15T07:19:35;0.80;;;0.80;;
12308;SDS011;6217;48.150;17.142;2023-04-15T07:23:41;1.08;;;0.95;;
12308;SDS011;6217;48.150;17.142;2023-04-15T07:27:47;1.55;;;1.08;;
12308;SDS011;6217;48.150;17.142;2023-04-15T07:31:53;0.70;;;0.70;;
12308;SDS011;6217;48.150;17.142;2023-04-15T07:36:01;2.15;;;0.70;;
12308;SDS011;6217;48.150;17.142;2023-04-15T07:40:07;0.65;;;0.65;;
12308;SDS011;6217;48.150;17.142;2023-04-15T07:44:14;1.52;;;0.80;;
12308;SDS011;6217;48.150;17.142;2023-04-15T07:48:25;0.90;;;0.90;;
12308;SDS011;6217;48.150;17.142;2023-04-15T07:52:31;1.08;;;0.90;;
12308;SDS011;6217;48.150;17.142;2023-04-15T07:56:43;1.10;;;1.00;;
12308;SDS011;6217;48.150;17.142;2023-04-15T08:00:49;1.73;;;1.00;;
12308;SDS011;6217;48.150;17.142;2023-04-15T08:04:55;1.35;;;1.25;;
12308;SDS011;6217;48.150;17.142;2023-04-15T08:09:01;1.00;;;0.90;;
12308;SDS011;6217;48.150;17.142;2023-04-15T08:13:07;0.80;;;0.80;;
12308;SDS011;6217;48.150;17.142;2023-04-15T08:17:14;0.70;;;0.70;;
12308;SDS011;6217;48.150;17.142;2023-04-15T08:21:21;0.75;;;0.73;;
12308;SDS011;6217;48.150;17.142;2023-04-15T08:25:27;2.20;;;0.90;;
12308;SDS011;6217;48.150;17.142;2023-04-15T08:29:33;1.13;;;0.77;;
12308;SDS011;6217;48.150;17.142;2023-04-15T08:33:39;0.70;;;0.70;;
12308;SDS011;6217;48.150;17.142;2023-04-15T08:37:45;0.60;;;0.60;;
12308;SDS011;6217;48.150;17.142;2023-04-15T08:41:55;0.90;;;0.70;;
12308;SDS011;6217;48.150;17.142;2023-04-15T08:46:09;0.55;;;0.55;;
12308;SDS011;6217;48.150;17.142;2023-04-15T08:50:17;0.70;;;0.70;;
12308;SDS011;6217;48.150;17.142;2023-04-15T08:54:24;0.80;;;0.80;;
12308;SDS011;6217;48.150;17.142;2023-04-15T08:58:31;1.05;;;1.05;;
12308;SDS011;6217;48.150;17.142;2023-04-15T09:02:37;0.52;;;0.52;;
12308;SDS011;6217;48.150;17.142;2023-04-15T09:06:44;0.40;;;0.40;;
12308;SDS011;6217;48.150;17.142;2023-04-15T09:10:49;0.60;;;0.60;;
12308;SDS011;6217;48.150;17.142;2023-04-15T09:14:56;0.40;;;0.40;;
12308;SDS011;6217;48.150;17.142;2023-04-15T09:19:18;0.40;;;0.40;;
12308;SDS011;6217;48.150;17.142;2023-04-15T09:23:28;0.30;;;0.30;;
12308;SDS011;6217;48.150;17.142;2023-04-15T09:27:35;0.30;;;0.30;;
12308;SDS011;6217;48.150;17.142;2023-04-15T09:31:41;0.47;;;0.30;;
12308;SDS011;6217;48.150;17.142;2023-04-15T09:35:57;0.30;;;0.30;;
12308;SDS011;6217;48.150;17.142;2023-04-15T09:40:11;1.02;;;0.40;;
12308;SDS011;6217;48.150;17.142;2023-04-15T09:44:24;0.52;;;0.43;;
12308;SDS011;6217;48.150;17.142;2023-04-15T09:48:31;0.40;;;0.40;;
12308;SDS011;6217;48.150;17.142;2023-04-15T09:52:40;0.60;;;0.40;;
12308;SDS011;6217;48.150;17.142;2023-04-15T09:56:47;0.63;;;0.53;;
12308;SDS011;6217;48.150;17.142;2023-04-15T10:00:54;1.00;;;0.90;;
12308;SDS011;6217;48.150;17.142;2023-04-15T10:05:01;1.00;;;0.90;;
12308;SDS011;6217;48.150;17.142;2023-04-15T10:09:08;0.95;;;0.60;;
12308;SDS011;6217;48.150;17.142;2023-04-15T10:13:16;0.88;;;0.70;;
12308;SDS011;6217;48.150;17.142;2023-04-15T10:17:29;0.50;;;0.50;;
12308;SDS011;6217;48.150;17.142;2023-04-15T10:21:41;0.52;;;0.45;;
12308;SDS011;6217;48.150;17.142;2023-04-15T10:25:50;0.60;;;0.60;;
12308;SDS011;6217;48.150;17.142;2023-04-15T10:30:00;0.55;;;0.55;;
12308;SDS011;6217;48.150;17.142;2023-04-15T10:34:09;0.47;;;0.47;;
12308;SDS011;6217;48.150;17.142;2023-04-15T10:42:48;0.40;;;0.40;;
12308;SDS011;6217;48.150;17.142;2023-04-15T10:46:54;0.55;;;0.50;;
12308;SDS011;6217;48.150;17.142;2023-04-15T10:51:03;0.60;;;0.60;;
12308;SDS011;6217;48.150;17.142;2023-04-15T10:59:20;0.40;;;0.40;;
12308;SDS011;6217;48.150;17.142;2023-04-15T11:03:35;0.40;;;0.40;;
12308;SDS011;6217;48.150;17.142;2023-04-15T11:12:11;0.60;;;0.60;;
12308;SDS011;6217;48.150;17.142;2023-04-15T11:16:17;0.50;;;0.50;;
12308;SDS011;6217;48.150;17.142;2023-04-15T11:20:23;0.57;;;0.57;;
12308;SDS011;6217;48.150;17.142;2023-04-15T11:24:29;0.50;;;0.50;;
12308;SDS011;6217;48.150;17.142;2023-04-15T11:28:35;0.30;;;0.30;;
12308;SDS011;6217;48.150;17.142;2023-04-15T11:32:44;0.75;;;0.40;;
12308;SDS011;6217;48.150;17.142;2023-04-15T11:36:50;0.90;;;0.90;;
12308;SDS011;6217;48.150;17.142;2023-04-15T11:41:02;0.43;;;0.43;;
12308;SDS011;6217;48.150;17.142;2023-04-15T11:45:09;0.40;;;0.40;;
12308;SDS011;6217;48.150;17.142;2023-04-15T11:49:27;0.68;;;0.50;;
12308;SDS011;6217;48.150;17.142;2023-04-15T11:58:08;0.50;;;0.50;;
12308;SDS011;6217;48.150;17.142;2023-04-15T12:02:29;0.75;;;0.40;;
12308;SDS011;6217;48.150;17.142;2023-04-15T12:06:37;3.50;;;0.93;;
12308;SDS011;6217;48.150;17.142;2023-04-15T12:10:43;0.63;;;0.47;;
12308;SDS011;6217;48.150;17.142;2023-04-15T12:14:50;2.65;;;0.60;;
12308;SDS011;6217;48.150;17.142;2023-04-15T12:18:58;0.52;;;0.45;;
12308;SDS011;6217;48.150;17.142;2023-04-15T12:23:05;0.57;;;0.40;;
12308;SDS011;6217;48.150;17.142;2023-04-15T12:27:11;0.52;;;0.43;;
12308;SDS011;6217;48.150;17.142;2023-04-15T12:31:20;0.60;;;0.50;;
12308;SDS011;6217;48.150;17.142;2023-04-15T12:35:27;0.38;;;0.38;;
12308;SDS011;6217;48.150;17.142;2023-04-15T12:39:37;1.10;;;0.40;;
12308;SDS011;6217;48.150;17.142;2023-04-15T12:43:45;0.68;;;0.35;;
12308;SDS011;6217;48.150;17.142;2023-04-15T12:47:51;0.30;;;0.30;;
12308;SDS011;6217;48.150;17.142;2023-04-15T12:51:58;0.35;;;0.35;;
12308;SDS011;6217;48.150;17.142;2023-04-15T12:56:05;0.30;;;0.30;;
12308;SDS011;6217;48.150;17.142;2023-04-15T13:00:12;0.30;;;0.30;;
12308;SDS011;6217;48.150;17.142;2023-04-15T13:04:18;0.30;;;0.30;;
12308;SDS011;6217;48.150;17.142;2023-04-15T13:08:25;0.40;;;0.40;;
12308;SDS011;6217;48.150;17.142;2023-04-15T13:12:31;0.30;;;0.30;;
12308;SDS011;6217;48.150;17.142;2023-04-15T13:16:40;0.20;;;0.20;;
12308;SDS011;6217;48.150;17.142;2023-04-15T13:20:46;0.25;;;0.20;;
12308;SDS011;6217;48.150;17.142;2023-04-15T13:24:52;0.20;;;0.20;;
12308;SDS011;6217;48.150;17.142;2023-04-15T13:28:58;0.20;;;0.20;;
12308;SDS011;6217;48.150;17.142;2023-04-15T13:33:05;0.30;;;0.30;;
12308;SDS011;6217;48.150;17.142;2023-04-15T13:37:11;1.38;;;0.30;;
12308;SDS011;6217;48.150;17.142;2023-04-15T13:41:17;0.25;;;0.25;;
12308;SDS011;6217;48.150;17.142;2023-04-15T13:45:24;0.65;;;0.30;;
12308;SDS011;6217;48.150;17.142;2023-04-15T13:49:31;0.20;;;0.20;;
12308;SDS011;6217;48.150;17.142;2023-04-15T13:53:37;0.30;;;0.30;;
12308;SDS011;6217;48.150;17.142;2023-04-15T13:57:43;0.10;;;0.10;;
12308;SDS011;6217;48.150;17.142;2023-04-15T14:01:49;0.25;;;0.25;;
12308;SDS011;6217;48.150;17.142;2023-04-15T14:05:55;0.20;;;0.20;;
12308;SDS011;6217;48.150;17.142;2023-04-15T14:10:02;0.30;;;0.30;;
12308;SDS011;6217;48.150;17.142;2023-04-15T14:14:08;0.30;;;0.30;;
12308;SDS011;6217;48.150;17.142;2023-04-15T14:18:14;0.30;;;0.30;;
12308;SDS011;6217;48.150;17.142;2023-04-15T14:22:20;0.20;;;0.20;;
12308;SDS011;6217;48.150;17.142;2023-04-15T14:26:26;0.65;;;0.20;;
12308;SDS011;6217;48.150;17.142;2023-04-15T14:30:32;0.35;;;0.35;;
12308;SDS011;6217;48.150;17.142;2023-04-15T14:34:38;1.35;;;0.60;;
12308;SDS011;6217;48.150;17.142;2023-04-15T14:38:44;0.75;;;0.40;;
12308;SDS011;6217;48.150;17.142;2023-04-15T14:42:50;0.70;;;0.70;;
12308;SDS011;6217;48.150;17.142;2023-04-15T14:46:56;0.20;;;0.20;;
12308;SDS011;6217;48.150;17.142;2023-04-15T14:51:02;0.20;;;0.20;;
12308;SDS011;6217;48.150;17.142;2023-04-15T14:55:09;0.28;;;0.28;;
12308;SDS011;6217;48.150;17.142;2023-04-15T14:59:16;0.30;;;0.30;;
12308;SDS011;6217;48.150;17.142;2023-04-15T15:03:22;0.20;;;0.20;;
12308;SDS011;6217;48.150;17.142;2023-04-15T15:07:27;0.82;;;0.40;;
12308;SDS011;6217;48.150;17.142;2023-04-15T15:11:33;0.38;;;0.38;;
12308;SDS011;6217;48.150;17.142;2023-04-15T15:15:39;0.30;;;0.30;;
12308;SDS011;6217;48.150;17.142;2023-04-15T15:19:46;0.30;;;0.30;;
12308;SDS011;6217;48.150;17.142;2023-04-15T15:23:52;0.20;;;0.20;;
12308;SDS011;6217;48.150;17.142;2023-04-15T15:27:58;0.30;;;0.30;;
12308;SDS011;6217;48.150;17.142;2023-04-15T15:32:04;0.40;;;0.40;;
12308;SDS011;6217;48.150;17.142;2023-04-15T15:36:10;0.40;;;0.40;;
12308;SDS011;6217;48.150;17.142;2023-04-15T15:40:16;0.43;;;0.38;;
12308;SDS011;6217;48.150;17.142;2023-04-15T15:44:22;0.45;;;0.45;;
12308;SDS011;6217;48.150;17.142;2023-04-15T15:48:28;0.45;;;0.45;;
12308;SDS011;6217;48.150;17.142;2023-04-15T15:52:34;0.82;;;0.40;;
12308;SDS011;6217;48.150;17.142;2023-04-15T15:56:40;0.40;;;0.40;;
12308;SDS011;6217;48.150;17.142;2023-04-15T16:00:46;0.60;;;0.60;;
12308;SDS011;6217;48.150;17.142;2023-04-15T16:04:52;0.60;;;0.60;;
12308;SDS011;6217;48.150;17.142;2023-04-15T16:08:58;0.60;;;0.50;;
12308;SDS011;6217;48.150;17.142;2023-04-15T16:13:04;0.85;;;0.47;;
12308;SDS011;6217;48.150;17.142;2023-04-15T16:17:09;0.63;;;0.50;;
12308;SDS011;6217;48.150;17.142;2023-04-15T16:21:15;0.40;;;0.40;;
12308;SDS011;6217;48.150;17.142;2023-04-15T16:25:21;0.60;;;0.40;;
12308;SDS011;6217;48.150;17.142;2023-04-15T16:29:27;0.60;;;0.60;;
12308;SDS011;6217;48.150;17.142;2023-04-15T16:33:33;0.50;;;0.50;;
12308;SDS011;6217;48.150;17.142;2023-04-15T16:37:39;0.50;;;0.50;;
12308;SDS011;6217;48.150;17.142;2023-04-15T16:41:45;0.77;;;0.30;;
12308;SDS011;6217;48.150;17.142;2023-04-15T16:45:51;0.63;;;0.45;;
12308;SDS011;6217;48.150;17.142;2023-04-15T16:49:57;0.50;;;0.50;;
12308;SDS011;6217;48.150;17.142;2023-04-15T16:54:03;0.40;;;0.40;;
12308;SDS011;6217;48.150;17.142;2023-04-15T16:58:09;0.45;;;0.40;;
12308;SDS011;6217;48.150;17.142;2023-04-15T17:02:15;0.40;;;0.40;;
12308;SDS011;6217;48.150;17.142;2023-04-15T17:06:21;0.40;;;0.40;;
12308;SDS011;6217;48.150;17.142;2023-04-15T17:10:27;1.42;;;0.50;;
12308;SDS011;6217;48.150;17.142;2023-04-15T17:14:33;0.38;;;0.38;;
12308;SDS011;6217;48.150;17.142;2023-04-15T17:18:39;0.50;;;0.50;;
12308;SDS011;6217;48.150;17.142;2023-04-15T17:22:45;0.88;;;0.30;;
12308;SDS011;6217;48.150;17.142;2023-04-15T17:26:52;0.52;;;0.50;;
12308;SDS011;6217;48.150;17.142;2023-04-15T17:30:58;0.38;;;0.38;;
12308;SDS011;6217;48.150;17.142;2023-04-15T17:35:05;0.47;;;0.40;;
12308;SDS011;6217;48.150;17.142;2023-04-15T17:39:12;0.43;;;0.43;;
12308;SDS011;6217;48.150;17.142;2023-04-15T17:43:19;1.35;;;0.50;;
12308;SDS011;6217;48.150;17.142;2023-04-15T17:47:25;0.40;;;0.40;;
12308;SDS011;6217;48.150;17.142;2023-04-15T17:51:31;0.68;;;0.55;;
12308;SDS011;6217;48.150;17.142;2023-04-15T17:55:45;1.13;;;0.50;;
12308;SDS011;6217;48.150;17.142;2023-04-15T17:59:51;0.52;;;0.52;;
12308;SDS011;6217;48.150;17.142;2023-04-15T18:03:57;0.80;;;0.70;;
12308;SDS011;6217;48.150;17.142;2023-04-15T18:08:03;0.70;;;0.70;;
12308;SDS011;6217;48.150;17.142;2023-04-15T18:12:10;1.23;;;0.70;;
12308;SDS011;6217;48.150;17.142;2023-04-15T18:16:16;0.70;;;0.70;;
12308;SDS011;6217;48.150;17.142;2023-04-15T18:20:23;0.85;;;0.70;;
12308;SDS011;6217;48.150;17.142;2023-04-15T18:24:29;0.85;;;0.70;;
12308;SDS011;6217;48.150;17.142;2023-04-15T18:28:34;1.75;;;0.88;;
12308;SDS011;6217;48.150;17.142;2023-04-15T18:32:42;1.05;;;0.80;;
12308;SDS011;6217;48.150;17.142;2023-04-15T18:36:48;0.82;;;0.70;;
12308;SDS011;6217;48.150;17.142;2023-04-15T18:40:54;1.35;;;0.80;;
12308;SDS011;6217;48.150;17.142;2023-04-15T18:45:00;0.90;;;0.80;;
12308;SDS011;6217;48.150;17.142;2023-04-15T18:49:06;0.85;;;0.80;;
12308;SDS011;6217;48.150;17.142;2023-04-15T18:53:12;0.98;;;0.85;;
12308;SDS011;6217;48.150;17.142;2023-04-15T18:57:18;1.33;;;0.90;;
12308;SDS011;6217;48.150;17.142;2023-04-15T19:01:24;2.33;;;0.82;;
12308;SDS011;6217;48.150;17.142;2023-04-15T19:05:30;1.02;;;0.93;;
12308;SDS011;6217;48.150;17.142;2023-04-15T19:09:36;1.58;;;0.93;;
12308;SDS011;6217;48.150;17.142;2023-04-15T19:13:42;1.58;;;1.48;;
12308;SDS011;6217;48.150;17.142;2023-04-15T19:17:48;2.42;;;1.17;;
12308;SDS011;6217;48.150;17.142;2023-04-15T19:21:54;1.65;;;1.17;;
12308;SDS011;6217;48.150;17.142;2023-04-15T19:26:00;1.75;;;1.30;;
12308;SDS011;6217;48.150;17.142;2023-04-15T19:30:06;1.95;;;1.33;;
12308;SDS011;6217;48.150;17.142;2023-04-15T19:34:12;1.70;;;1.08;;
12308;SDS011;6217;48.150;17.142;2023-04-15T19:38:18;1.67;;;1.10;;
12308;SDS011;6217;48.150;17.142;2023-04-15T19:42:24;2.33;;;1.50;;
12308;SDS011;6217;48.150;17.142;2023-04-15T19:46:30;1.42;;;1.00;;
12308;SDS011;6217;48.150;17.142;2023-04-15T19:50:36;1.88;;;1.15;;
12308;SDS011;6217;48.150;17.142;2023-04-15T19:54:42;1.73;;;1.20;;
12308;SDS011;6217;48.150;17.142;2023-04-15T19:58:48;2.50;;;1.77;;
12308;SDS011;6217;48.150;17.142;2023-04-15T20:02:57;1.83;;;1.40;;
12308;SDS011;6217;48.150;17.142;2023-04-15T20:07:03;2.03;;;1.70;;
12308;SDS011;6217;48.150;17.142;2023-04-15T20:11:09;1.98;;;1.45;;
12308;SDS011;6217;48.150;17.142;2023-04-15T20:15:16;1.73;;;1.50;;
12308;SDS011;6217;48.150;17.142;2023-04-15T20:19:22;4.93;;;1.75;;
12308;SDS011;6217;48.150;17.142;2023-04-15T20:23:28;2.55;;;1.70;;
12308;SDS011;6217;48.150;17.142;2023-04-15T20:27:34;2.15;;;1.55;;
12308;SDS011;6217;48.150;17.142;2023-04-15T20:31:40;3.05;;;2.00;;
12308;SDS011;6217;48.150;17.142;2023-04-15T20:35:46;2.10;;;1.85;;
12308;SDS011;6217;48.150;17.142;2023-04-15T20:39:52;1.90;;;1.50;;
12308;SDS011;6217;48.150;17.142;2023-04-15T20:43:58;3.35;;;1.80;;
12308;SDS011;6217;48.150;17.142;2023-04-15T20:48:04;2.28;;;1.70;;
12308;SDS011;6217;48.150;17.142;2023-04-15T20:52:10;3.88;;;1.80;;
12308;SDS011;6217;48.150;17.142;2023-04-15T20:56:16;2.42;;;1.77;;
12308;SDS011;6217;48.150;17.142;2023-04-15T21:00:22;2.95;;;1.70;;
12308;SDS011;6217;48.150;17.142;2023-04-15T21:04:28;2.60;;;2.10;;
12308;SDS011;6217;48.150;17.142;2023-04-15T21:08:36;2.65;;;2.28;;
12308;SDS011;6217;48.150;17.142;2023-04-15T21:12:42;1.73;;;1.40;;
12308;SDS011;6217;48.150;17.142;2023-04-15T21:16:48;2.30;;;1.33;;
12308;SDS011;6217;48.150;17.142;2023-04-15T21:20:54;1.75;;;1.65;;
12308;SDS011;6217;48.150;17.142;2023-04-15T21:25:05;1.60;;;0.93;;
12308;SDS011;6217;48.150;17.142;2023-04-15T21:29:11;2.05;;;1.35;;
12308;SDS011;6217;48.150;17.142;2023-04-15T21:33:17;1.25;;;0.98;;
12308;SDS011;6217;48.150;17.142;2023-04-15T21:37:24;1.10;;;1.00;;
12308;SDS011;6217;48.150;17.142;2023-04-15T21:41:30;1.92;;;1.40;;
12308;SDS011;6217;48.150;17.142;2023-04-15T21:45:36;1.92;;;1.50;;
12308;SDS011;6217;48.150;17.142;2023-04-15T21:49:43;1.25;;;1.10;;
12308;SDS011;6217;48.150;17.142;2023-04-15T21:53:49;1.38;;;1.10;;
12308;SDS011;6217;48.150;17.142;2023-04-15T21:57:56;1.58;;;1.00;;
12308;SDS011;6217;48.150;17.142;2023-04-15T22:02:02;1.90;;;1.30;;
12308;SDS011;6217;48.150;17.142;2023-04-15T22:06:08;1.45;;;1.10;;
12308;SDS011;6217;48.150;17.142;2023-04-15T22:10:14;1.20;;;1.10;;
12308;SDS011;6217;48.150;17.142;2023-04-15T22:14:20;1.35;;;1.10;;
12308;SDS011;6217;48.150;17.142;2023-04-15T22:18:26;1.20;;;1.10;;
12308;SDS011;6217;48.150;17.142;2023-04-15T22:22:32;1.20;;;1.10;;
12308;SDS011;6217;48.150;17.142;2023-04-15T22:26:38;1.52;;;1.25;;
12308;SDS011;6217;48.150;17.142;2023-04-15T22:30:44;2.45;;;1.50;;
12308;SDS011;6217;48.150;17.142;2023-04-15T22:34:50;1.30;;;1.20;;
12308;SDS011;6217;48.150;17.142;2023-04-15T22:38:56;1.63;;;1.10;;
12308;SDS011;6217;48.150;17.142;2023-04-15T22:43:02;1.50;;;1.40;;
12308;SDS011;6217;48.150;17.142;2023-04-15T22:47:08;1.17;;;1.08;;
12308;SDS011;6217;48.150;17.142;2023-04-15T22:51:19;1.50;;;1.40;;
12308;SDS011;6217;48.150;17.142;2023-04-15T22:55:26;1.67;;;1.42;;
12308;SDS011;6217;48.150;17.142;2023-04-15T22:59:32;1.60;;;1.50;;
12308;SDS011;6217;48.150;17.142;2023-04-15T23:03:38;1.92;;;1.30;;
12308;SDS011;6217;48.150;17.142;2023-04-15T23:07:44;1.60;;;1.50;;
12308;SDS011;6217;48.150;17.142;2023-04-15T23:11:50;1.52;;;1.42;;
12308;SDS011;6217;48.150;17.142;2023-04-15T23:15:56;1.98;;;1.70;;
12308;SDS011;6217;48.150;17.142;2023-04-15T23:20:02;1.50;;;1.40;;
12308;SDS011;6217;48.150;17.142;2023-04-15T23:24:08;1.80;;;1.50;;
12308;SDS011;6217;48.150;17.142;2023-04-15T23:28:15;1.70;;;1.60;;
12308;SDS011;6217;48.150;17.142;2023-04-15T23:32:21;1.88;;;1.65;;
12308;SDS011;6217;48.150;17.142;2023-04-15T23:36:27;2.15;;;1.80;;
12308;SDS011;6217;48.150;17.142;2023-04-15T23:40:33;2.13;;;1.90;;
12308;SDS011;6217;48.150;17.142;2023-04-15T23:44:42;2.35;;;1.92;;
12308;SDS011;6217;48.150;17.142;2023-04-15T23:48:49;3.28;;;2.97;;
12308;SDS011;6217;48.150;17.142;2023-04-15T23:52:54;2.35;;;2.03;;
12308;SDS011;6217;48.150;17.142;2023-04-15T23:57:00;2.35;;;2.15;;
